Time;durP1;ratioP1;P1;durP2;ratioP2;P2;SDS_P1;SDS_P2;PMS_P1;PMS_P2;Temp;Humidity;BMP_temperature;BMP_pressure;BME280_temperature;BME280_humidity;BME280_pressure;Samples;Min_cycle;Max_cycle;Signal;HPM_P1;HPM_P2
2024/02/17 00:00:19;;;;;;;22.83;16.30;;;;;;;12.41;94.70;98709.13;4957415;28;20047;-70
2024/02/17 00:02:44;;;;;;;20.60;14.93;;;;;;;12.49;94.93;98714.13;4957033;28;20019;-71
2024/02/17 00:05:09;;;;;;;20.60;15.35;;;;;;;12.48;94.90;98714.38;4956631;28;20043;-71
2024/02/17 00:07:35;;;;;;;21.90;15.27;;;;;;;12.39;94.95;98702.31;4954046;29;20115;-71
2024/02/17 00:10:00;;;;;;;21.52;15.30;;;;;;;12.40;94.74;98710.19;4986998;28;20122;-71
2024/02/17 00:12:26;;;;;;;24.23;15.88;;;;;;;12.47;94.71;98716.25;4956028;28;20820;-71
2024/02/17 00:14:51;;;;;;;19.10;15.75;;;;;;;12.48;95.30;98717.88;4955208;28;20080;-71
2024/02/17 00:17:16;;;;;;;17.48;14.10;;;;;;;12.41;94.95;98706.44;4953857;28;20030;-71
2024/02/17 00:22:10;;;;;;;21.40;15.35;;;;;;;12.46;95.18;98719.19;5062339;28;20380;-73
2024/02/17 00:24:36;;;;;;;19.73;15.65;;;;;;;12.43;95.69;98717.81;5070929;28;20055;-73
2024/02/17 00:27:02;;;;;;;18.50;14.75;;;;;;;12.48;94.86;98720.56;5069121;28;20029;-72
2024/02/17 00:29:27;;;;;;;17.85;15.18;;;;;;;12.54;95.37;98726.06;5069335;28;20033;-72
2024/02/17 00:31:53;;;;;;;15.98;13.32;;;;;;;12.37;95.32;98718.75;5052449;28;20029;-73
2024/02/17 00:34:19;;;;;;;17.58;14.40;;;;;;;12.41;95.82;98721.81;5057938;28;20642;-73
2024/02/17 00:36:45;;;;;;;16.65;13.85;;;;;;;12.42;96.27;98734.22;5068372;28;20033;-73
2024/02/17 00:39:11;;;;;;;14.18;12.68;;;;;;;12.38;95.94;98723.13;5052802;28;20071;-72
2024/02/17 00:41:37;;;;;;;17.08;14.38;;;;;;;12.35;96.82;98723.59;5067502;28;20596;-73
2024/02/17 00:44:03;;;;;;;16.25;13.65;;;;;;;12.36;96.63;98725.25;5055325;28;20567;-74
2024/02/17 00:46:28;;;;;;;17.77;14.82;;;;;;;12.28;96.58;98722.09;5070274;28;20048;-73
2024/02/17 00:48:54;;;;;;;14.70;12.50;;;;;;;12.34;96.78;98732.78;5076318;28;20029;-73
2024/02/17 00:51:20;;;;;;;15.63;13.40;;;;;;;12.32;96.68;98729.47;5077531;28;20013;-73
2024/02/17 00:53:48;;;;;;;15.77;12.77;;;;;;;12.43;96.04;98731.31;5058907;28;20044;-73
2024/02/17 00:56:15;;;;;;;15.52;13.90;;;;;;;12.45;96.39;98744.56;5072382;28;20192;-73
2024/02/17 00:58:44;;;;;;;16.33;13.30;;;;;;;12.35;96.45;98739.78;5073532;28;20049;-71
2024/02/17 01:01:11;;;;;;;14.65;12.43;;;;;;;12.38;97.10;98739.31;5071891;28;20013;-71
2024/02/17 01:03:40;;;;;;;15.38;13.65;;;;;;;12.38;96.76;98744.72;5075094;28;20041;-71
2024/02/17 01:06:07;;;;;;;17.70;13.52;;;;;;;12.37;97.15;98745.78;5063989;28;20534;-71
2024/02/17 01:08:33;;;;;;;14.90;12.55;;;;;;;12.38;97.13;98743.91;5053086;28;20066;-71
2024/02/17 01:11:00;;;;;;;15.90;12.85;;;;;;;12.31;97.26;98754.84;5072265;28;20104;-71
2024/02/17 01:13:29;;;;;;;13.80;12.40;;;;;;;12.29;97.18;98748.88;5062266;28;20032;-71
2024/02/17 01:15:57;;;;;;;15.65;13.20;;;;;;;12.30;97.28;98753.19;5049376;28;20025;-71
2024/02/17 01:18:29;;;;;;;14.68;13.18;;;;;;;12.28;97.85;98760.72;5067932;28;20083;-71
2024/02/17 01:20:54;;;;;;;21.70;15.05;;;;;;;12.30;97.48;98758.59;5067315;28;20399;-71
2024/02/17 01:23:20;;;;;;;15.75;12.40;;;;;;;12.27;97.57;98764.50;5063976;28;20033;-71
2024/02/17 01:25:51;;;;;;;15.27;13.65;;;;;;;12.23;98.32;98768.72;5069787;28;20041;-71
2024/02/17 01:28:23;;;;;;;15.27;13.45;;;;;;;12.23;98.08;98768.72;5069952;28;20117;-71
2024/02/17 01:30:49;;;;;;;12.90;11.60;;;;;;;12.23;97.75;98763.31;5062850;28;20020;-72
2024/02/17 01:33:15;;;;;;;13.32;11.93;;;;;;;12.28;97.72;98771.53;5041495;28;20032;-72
2024/02/17 01:35:45;;;;;;;15.25;13.63;;;;;;;12.20;98.24;98780.03;5052810;28;20033;-72
2024/02/17 01:38:11;;;;;;;14.15;12.48;;;;;;;12.21;98.41;98773.56;5048419;28;20123;-72
2024/02/17 01:40:36;;;;;;;14.75;12.93;;;;;;;12.21;98.11;98775.44;5057885;28;20033;-72
2024/02/17 01:43:05;;;;;;;14.10;12.55;;;;;;;12.18;99.14;98778.63;5066762;28;20099;-72
2024/02/17 01:45:31;;;;;;;17.80;14.98;;;;;;;12.21;98.81;98773.56;5012870;28;20040;-72
2024/02/17 01:47:57;;;;;;;14.95;13.35;;;;;;;12.18;99.25;98776.72;5050380;28;20499;-71
2024/02/17 01:50:22;;;;;;;14.73;13.18;;;;;;;12.19;99.24;98781.06;5045539;28;20032;-72
2024/02/17 01:52:48;;;;;;;17.55;14.13;;;;;;;12.16;98.70;98786.16;5058104;28;20045;-72
2024/02/17 01:55:14;;;;;;;14.80;13.30;;;;;;;12.14;99.00;98770.16;5055880;28;20043;-72
2024/02/17 01:57:39;;;;;;;16.75;14.05;;;;;;;12.22;98.72;98790.59;5054072;28;20033;-71
2024/02/17 02:00:07;;;;;;;13.60;12.30;;;;;;;12.19;98.47;98783.78;5054403;28;20530;-72
2024/02/17 02:02:39;;;;;;;16.02;12.93;;;;;;;12.22;99.01;98799.50;5053321;28;20432;-72
2024/02/17 02:05:05;;;;;;;14.82;12.75;;;;;;;12.17;99.10;98791.31;5054379;28;20067;-72
2024/02/17 02:07:31;;;;;;;14.25;12.75;;;;;;;12.20;98.64;98798.94;5054027;28;20542;-71
2024/02/17 02:09:56;;;;;;;13.43;11.95;;;;;;;12.16;98.94;98789.66;5050795;28;20061;-71
2024/02/17 02:12:22;;;;;;;14.70;13.13;;;;;;;12.16;99.52;98795.06;5051334;28;20029;-74
2024/02/17 02:15:10;;;;;;;13.07;11.77;;;;;;;12.03;99.28;98794.50;5049021;28;20377;-73
2024/02/17 02:17:38;;;;;;;12.52;11.43;;;;;;;12.12;99.31;98799.28;5006415;28;20026;-72
2024/02/17 02:20:05;;;;;;;12.32;11.15;;;;;;;12.19;98.83;98808.09;5045440;28;20040;-72
2024/02/17 02:22:35;;;;;;;13.77;11.85;;;;;;;12.23;98.88;98806.53;5048634;28;20033;-72
2024/02/17 02:25:01;;;;;;;17.50;13.85;;;;;;;12.22;99.38;98810.31;5044368;28;20025;-71
2024/02/17 02:27:26;;;;;;;14.07;11.85;;;;;;;12.06;99.10;98804.84;5052243;28;20396;-71
2024/02/17 02:29:56;;;;;;;12.75;11.45;;;;;;;12.22;98.65;98826.50;5053511;28;20056;-71
2024/02/17 02:32:25;;;;;;;13.20;12.00;;;;;;;12.19;99.10;98832.38;5053523;28;20453;-71
2024/02/17 02:34:51;;;;;;;12.02;10.82;;;;;;;12.18;99.14;98830.72;5047378;28;20052;-72
2024/02/17 02:37:17;;;;;;;14.25;12.48;;;;;;;12.00;99.22;98801.19;5050362;28;20049;-72
2024/02/17 02:39:42;;;;;;;12.55;11.25;;;;;;;12.18;98.76;98846.94;5043151;28;20020;-71
2024/02/17 02:42:08;;;;;;;11.60;10.50;;;;;;;12.17;98.83;98850.72;5045031;28;20033;-71
2024/02/17 02:44:33;;;;;;;12.85;11.55;;;;;;;12.19;98.57;98845.88;5052363;28;20032;-71
2024/02/17 02:46:58;;;;;;;11.30;10.10;;;;;;;11.98;98.54;98829.50;5048226;28;20104;-71
2024/02/17 02:49:24;;;;;;;13.45;10.75;;;;;;;11.85;99.14;98852.19;5053426;28;20486;-71
2024/02/17 02:51:49;;;;;;;13.00;11.13;;;;;;;11.92;97.96;98850.19;5053023;28;20511;-71
2024/02/17 02:54:17;;;;;;;14.73;12.80;;;;;;;11.95;96.90;98852.38;5035303;28;20029;-71
2024/02/17 02:56:42;;;;;;;15.32;12.95;;;;;;;11.93;96.10;98859.91;5034374;28;20033;-71
2024/02/17 02:59:07;;;;;;;16.17;13.20;;;;;;;11.83;96.10;98859.69;5039746;28;20028;-72
2024/02/17 03:01:33;;;;;;;20.17;14.20;;;;;;;11.83;95.42;98865.09;5027932;28;20037;-71
2024/02/17 03:03:58;;;;;;;17.20;14.57;;;;;;;11.76;95.25;98869.78;5052756;28;20029;-71
2024/02/17 03:06:24;;;;;;;19.13;15.35;;;;;;;11.75;95.54;98878.94;5047074;28;20041;-71
2024/02/17 03:08:50;;;;;;;20.27;15.63;;;;;;;11.68;94.94;98872.81;5048141;28;20032;-71
2024/02/17 03:11:16;;;;;;;21.10;15.80;;;;;;;11.62;95.63;98879.94;5045744;28;20101;-71
2024/02/17 03:13:41;;;;;;;20.52;15.38;;;;;;;11.58;95.52;98888.72;5046822;28;20048;-71
2024/02/17 03:16:07;;;;;;;19.52;15.48;;;;;;;11.63;95.78;98894.25;5051020;28;20033;-71
2024/02/17 03:18:32;;;;;;;19.45;15.20;;;;;;;11.59;95.00;98890.38;5044264;28;20084;-71
2024/02/17 03:20:58;;;;;;;19.52;15.30;;;;;;;11.62;95.18;98900.72;5051478;28;20029;-71
2024/02/17 03:23:25;;;;;;;19.83;15.32;;;;;;;11.59;94.86;98903.88;5045373;28;20025;-71
2024/02/17 03:25:50;;;;;;;20.15;15.57;;;;;;;11.56;94.64;98904.34;5052338;28;20074;-72
2024/02/17 03:28:16;;;;;;;17.58;14.05;;;;;;;11.62;94.15;98922.31;5051218;28;20427;-71
2024/02/17 03:30:41;;;;;;;17.42;14.18;;;;;;;11.56;93.99;98909.72;5052158;28;20028;-71
2024/02/17 03:33:09;;;;;;;18.50;15.15;;;;;;;11.49;94.03;98919.81;5052215;28;20523;-73
2024/02/17 03:35:35;;;;;;;18.92;13.27;;;;;;;11.50;94.15;98913.38;5039844;28;20066;-73
2024/02/17 03:38:00;;;;;;;18.77;14.20;;;;;;;11.56;93.77;98929.44;5036606;28;20163;-73
2024/02/17 03:40:25;;;;;;;16.02;13.80;;;;;;;11.49;93.89;98917.09;5041915;28;20033;-73
2024/02/17 03:42:51;;;;;;;15.13;12.65;;;;;;;11.53;93.59;98929.91;5046657;28;20020;-72
2024/02/17 03:45:16;;;;;;;15.43;12.48;;;;;;;11.57;93.46;98930.28;5050803;28;20036;-72
2024/02/17 03:47:42;;;;;;;15.18;12.20;;;;;;;11.46;92.83;98915.69;5048163;28;20053;-72
2024/02/17 03:50:07;;;;;;;15.55;12.52;;;;;;;11.57;93.15;98941.06;5044061;28;20043;-72
2024/02/17 03:52:33;;;;;;;14.07;11.52;;;;;;;11.58;92.77;98937.28;5047363;28;20117;-71
2024/02/17 03:54:58;;;;;;;16.45;12.38;;;;;;;11.61;92.39;98937.66;5036217;28;20171;-70
2024/02/17 03:57:24;;;;;;;14.95;12.18;;;;;;;11.60;92.25;98949.50;5029079;28;20032;-70
2024/02/17 03:59:49;;;;;;;15.02;11.95;;;;;;;11.61;92.62;98948.47;5049419;28;20171;-71
2024/02/17 04:02:14;;;;;;;14.95;11.95;;;;;;;11.61;92.09;98958.41;5048576;28;20124;-72
2024/02/17 04:04:40;;;;;;;15.20;12.38;;;;;;;11.63;92.33;98962.53;5043479;28;20484;-73
2024/02/17 04:07:05;;;;;;;15.10;11.82;;;;;;;11.64;92.45;98968.75;5051391;28;20112;-73
2024/02/17 04:09:31;;;;;;;17.17;11.73;;;;;;;11.61;92.14;98974.59;5048936;28;20098;-73
2024/02/17 04:11:56;;;;;;;16.67;12.30;;;;;;;11.59;92.21;98982.13;5052854;28;20529;-73
2024/02/17 04:14:22;;;;;;;15.90;13.10;;;;;;;11.54;91.85;98973.88;5053053;28;20447;-73
2024/02/17 04:16:47;;;;;;;16.38;12.52;;;;;;;11.55;91.74;98983.63;5051285;28;20393;-72
2024/02/17 04:19:13;;;;;;;16.42;12.70;;;;;;;11.33;92.08;98977.13;5046166;28;20411;-72
2024/02/17 04:21:38;;;;;;;15.50;13.07;;;;;;;11.43;92.30;99001.66;5046250;28;20057;-72
2024/02/17 04:24:04;;;;;;;16.25;12.10;;;;;;;11.43;92.49;99004.34;5040253;28;20039;-72
2024/02/17 04:26:30;;;;;;;14.55;11.85;;;;;;;11.30;92.34;98988.34;5051269;28;20021;-72
2024/02/17 04:28:55;;;;;;;14.52;11.60;;;;;;;11.35;91.74;99001.97;5048897;28;20048;-72
2024/02/17 04:31:21;;;;;;;15.95;11.93;;;;;;;11.41;91.41;99022.66;5038805;28;20024;-72
2024/02/17 04:33:46;;;;;;;15.23;12.23;;;;;;;11.31;91.97;99022.38;5052518;28;20072;-72
2024/02/17 04:36:12;;;;;;;15.85;12.18;;;;;;;11.33;91.79;99033.75;5037186;28;20025;-72
2024/02/17 04:38:38;;;;;;;16.33;12.68;;;;;;;11.35;91.89;99043.25;5050523;28;20045;-72
2024/02/17 04:41:04;;;;;;;15.73;11.40;;;;;;;11.34;91.80;99043.50;5048115;28;20103;-71
2024/02/17 04:43:29;;;;;;;14.57;11.82;;;;;;;11.28;91.73;99042.53;5050257;28;20075;-72
2024/02/17 04:45:55;;;;;;;15.77;12.10;;;;;;;11.19;92.06;99054.66;5045643;28;20025;-72
2024/02/17 04:48:20;;;;;;;14.18;12.32;;;;;;;11.19;91.31;99051.16;5045338;28;20500;-72
2024/02/17 04:50:46;;;;;;;15.40;11.82;;;;;;;11.03;91.34;99034.56;5043597;28;20044;-71
2024/02/17 04:53:11;;;;;;;15.65;11.85;;;;;;;11.08;91.73;99058.13;5053603;28;20033;-71
2024/02/17 04:55:36;;;;;;;16.52;12.50;;;;;;;10.96;91.90;99060.78;5052855;28;20147;-71
2024/02/17 04:58:02;;;;;;;17.08;12.50;;;;;;;10.95;91.73;99067.19;5044411;28;20029;-72
2024/02/17 05:00:28;;;;;;;17.42;12.13;;;;;;;10.92;91.64;99075.72;5052074;28;20024;-72
2024/02/17 05:02:53;;;;;;;18.58;13.13;;;;;;;10.75;91.55;99047.75;5047455;28;20045;-72
2024/02/17 05:05:19;;;;;;;14.02;12.07;;;;;;;10.79;91.63;99083.13;5044297;28;20025;-71
2024/02/17 05:07:47;;;;;;;20.65;12.30;;;;;;;10.72;91.62;99087.78;5054033;28;20135;-71
2024/02/17 05:12:35;;;;;;;16.90;12.80;;;;;;;10.49;91.76;99085.72;5089715;27;20383;-72
